Time;durP1;ratioP1;P1;durP2;ratioP2;P2;SDS_P1;SDS_P2;PMS_P1;PMS_P2;Temp;Humidity;BMP_temperature;BMP_pressure;BME280_temperature;BME280_humidity;BME280_pressure;Samples;Min_cycle;Max_cycle;Signal;HPM_P1;HPM_P2
2022/03/25 00:02:01;;;;;;;25.23;18.37;;;26.60;99.90;;;;;;1869371;75;21650;-82
2022/03/25 00:04:39;;;;;;;26.00;20.20;;;26.70;99.90;;;;;;1851007;76;21123;-82
2022/03/25 00:07:10;;;;;;;24.82;18.50;;;26.70;99.90;;;;;;1868253;76;21068;-82
2022/03/25 00:09:41;;;;;;;22.52;17.95;;;26.70;99.90;;;;;;1855166;75;21212;-84
2022/03/25 00:12:22;;;;;;;24.05;18.25;;;26.80;99.90;;;;;;1865802;75;21076;-83
2022/03/25 00:14:53;;;;;;;22.55;18.85;;;26.80;99.90;;;;;;1835933;78;21246;-81
2022/03/25 00:17:24;;;;;;;21.15;17.85;;;26.80;99.90;;;;;;1861653;75;21084;-80
2022/03/25 00:19:55;;;;;;;24.57;17.50;;;26.80;99.90;;;;;;1859191;75;21171;-81
2022/03/25 00:22:26;;;;;;;21.48;17.77;;;26.90;99.90;;;;;;1872919;75;21208;-79
2022/03/25 00:24:57;;;;;;;22.13;17.92;;;26.90;99.90;;;;;;1864907;75;21092;-79
2022/03/25 00:27:28;;;;;;;25.20;18.02;;;27.00;99.90;;;;;;1866438;75;21147;-79
2022/03/25 00:30:01;;;;;;;21.57;18.37;;;27.00;99.90;;;;;;1879341;75;21145;-79
2022/03/25 00:32:32;;;;;;;23.55;18.57;;;27.00;99.90;;;;;;1852070;77;21227;-79
2022/03/25 00:35:04;;;;;;;20.88;17.25;;;27.00;99.90;;;;;;1870936;75;21143;-80
2022/03/25 00:37:35;;;;;;;23.25;17.48;;;27.00;99.90;;;;;;1872957;76;21653;-79
2022/03/25 00:40:07;;;;;;;24.18;18.40;;;27.00;99.90;;;;;;1866813;76;21093;-80
2022/03/25 00:42:38;;;;;;;23.90;18.45;;;27.00;99.90;;;;;;1865761;75;21583;-79
2022/03/25 00:45:10;;;;;;;30.50;18.95;;;27.00;99.90;;;;;;1872471;76;21162;-80
2022/03/25 00:47:42;;;;;;;27.48;18.77;;;27.00;99.90;;;;;;1869693;75;21182;-82
2022/03/25 00:50:14;;;;;;;24.57;19.35;;;27.00;99.90;;;;;;1866972;76;21202;-81
2022/03/25 00:52:46;;;;;;;25.02;18.10;;;27.10;99.90;;;;;;1856125;76;21080;-81
2022/03/25 00:55:18;;;;;;;21.35;17.82;;;27.10;99.90;;;;;;1862895;76;21189;-81
2022/03/25 00:57:49;;;;;;;24.27;18.57;;;27.10;99.90;;;;;;1870889;76;21140;-81
2022/03/25 01:00:20;;;;;;;25.88;19.17;;;27.10;99.90;;;;;;1870007;76;21142;-82
2022/03/25 01:02:52;;;;;;;22.62;18.62;;;27.20;99.90;;;;;;1865419;75;21272;-82
2022/03/25 01:05:23;;;;;;;25.32;19.35;;;27.20;99.90;;;;;;1868603;76;21673;-82
2022/03/25 01:07:54;;;;;;;24.95;18.98;;;27.20;99.90;;;;;;1868640;76;21202;-82
2022/03/25 01:10:25;;;;;;;25.70;19.40;;;27.20;99.90;;;;;;1867891;75;21245;-83
2022/03/25 01:12:55;;;;;;;26.50;19.85;;;27.30;99.90;;;;;;1867687;76;21700;-82
2022/03/25 01:15:27;;;;;;;27.85;19.52;;;27.20;99.90;;;;;;1869233;75;21177;-82
2022/03/25 01:17:58;;;;;;;22.35;19.05;;;27.30;99.90;;;;;;1866756;75;21111;-83
2022/03/25 01:20:29;;;;;;;25.75;19.75;;;27.30;99.90;;;;;;1869686;75;21244;-82
2022/03/25 01:23:01;;;;;;;24.50;19.65;;;27.30;99.90;;;;;;1867421;75;21100;-82
2022/03/25 01:25:36;;;;;;;26.20;19.70;;;27.40;99.80;;;;;;1867754;75;21162;-84
2022/03/25 01:28:09;;;;;;;29.15;20.50;;;27.40;99.70;;;;;;1869790;75;21222;-83
2022/03/25 01:30:40;;;;;;;26.93;20.15;;;27.40;99.70;;;;;;1868937;75;21163;-81
2022/03/25 01:33:14;;;;;;;22.75;18.67;;;27.50;99.60;;;;;;1869820;75;21244;-83
2022/03/25 01:35:47;;;;;;;32.95;20.12;;;27.50;99.50;;;;;;1855905;76;21625;-83
2022/03/25 01:38:22;;;;;;;26.50;19.35;;;27.60;99.40;;;;;;1868061;76;21174;-82
2022/03/25 01:40:54;;;;;;;27.32;20.48;;;27.60;99.40;;;;;;1866845;75;21147;-83
2022/03/25 01:43:25;;;;;;;26.42;19.30;;;27.70;99.40;;;;;;1857727;75;21233;-83
2022/03/25 01:45:56;;;;;;;25.85;19.50;;;27.70;99.40;;;;;;1858378;75;21192;-82
2022/03/25 01:48:35;;;;;;;24.98;17.20;;;27.80;99.30;;;;;;1869233;75;21721;-84
2022/03/25 01:51:07;;;;;;;26.15;17.65;;;27.80;99.10;;;;;;1844840;76;21095;-73
2022/03/25 01:53:39;;;;;;;21.70;17.98;;;27.90;99.00;;;;;;1860421;75;21115;-73
2022/03/25 01:56:12;;;;;;;25.48;18.30;;;28.00;98.80;;;;;;1866331;75;21151;-72
2022/03/25 01:58:43;;;;;;;27.65;19.50;;;28.10;98.40;;;;;;1862518;76;21204;-73
2022/03/25 02:01:15;;;;;;;25.27;18.55;;;28.10;98.40;;;;;;1863951;76;21255;-73
2022/03/25 02:03:48;;;;;;;24.18;18.00;;;28.20;98.30;;;;;;1871909;76;21642;-74
2022/03/25 02:06:19;;;;;;;24.25;18.85;;;28.20;98.00;;;;;;1850274;76;21091;-74
2022/03/25 02:08:50;;;;;;;23.52;16.67;;;28.30;97.80;;;;;;1872974;75;21150;-75
2022/03/25 02:11:21;;;;;;;22.87;18.02;;;28.30;97.80;;;;;;1834931;76;21141;-74
2022/03/25 02:13:52;;;;;;;20.40;15.85;;;28.40;97.60;;;;;;1789811;79;21102;-74
2022/03/25 02:16:26;;;;;;;20.70;17.55;;;28.50;97.30;;;;;;1873937;76;21146;-74
2022/03/25 02:18:56;;;;;;;21.20;16.62;;;28.70;97.30;;;;;;1871572;76;22060;-75
2022/03/25 02:21:30;;;;;;;21.65;16.67;;;28.80;97.00;;;;;;1874327;76;21127;-75
2022/03/25 02:24:03;;;;;;;21.65;15.43;;;28.90;96.70;;;;;;1873867;75;21650;-74
2022/03/25 02:26:35;;;;;;;23.47;16.30;;;28.90;96.50;;;;;;1896822;75;21089;-72
2022/03/25 02:29:07;;;;;;;21.20;15.72;;;29.00;96.40;;;;;;1871262;75;21824;-73
2022/03/25 02:31:38;;;;;;;18.23;15.65;;;29.10;96.10;;;;;;1868334;75;21585;-73
2022/03/25 02:34:10;;;;;;;20.50;14.20;;;29.20;96.10;;;;;;1871149;75;22061;-74
2022/03/25 02:36:44;;;;;;;23.32;15.85;;;29.30;95.60;;;;;;1835200;78;21270;-73
2022/03/25 02:39:18;;;;;;;20.70;13.55;;;29.40;95.40;;;;;;1871498;75;21669;-74
2022/03/25 02:41:49;;;;;;;17.65;13.68;;;29.50;95.20;;;;;;1866238;75;21065;-74
2022/03/25 02:44:20;;;;;;;16.70;13.50;;;29.70;94.60;;;;;;1873985;75;21241;-73
2022/03/25 02:46:53;;;;;;;20.50;15.40;;;29.80;94.00;;;;;;1867133;75;21257;-74
2022/03/25 02:49:25;;;;;;;18.20;14.13;;;29.90;93.60;;;;;;1869644;76;21588;-73
2022/03/25 02:51:56;;;;;;;17.07;13.10;;;30.00;93.70;;;;;;1868709;75;21654;-73
2022/03/25 02:54:27;;;;;;;17.40;13.10;;;30.00;93.30;;;;;;1871909;75;21201;-73
2022/03/25 02:56:59;;;;;;;18.15;13.28;;;30.20;93.20;;;;;;1877464;75;21155;-73
2022/03/25 02:59:32;;;;;;;17.20;13.45;;;30.20;92.70;;;;;;1872535;75;21630;-73
2022/03/25 03:02:05;;;;;;;19.00;14.05;;;30.30;92.50;;;;;;1863565;75;21178;-74
2022/03/25 03:04:37;;;;;;;19.57;13.38;;;30.40;92.60;;;;;;1833513;77;21149;-74
2022/03/25 03:07:09;;;;;;;17.62;12.20;;;30.50;92.40;;;;;;1803815;79;21679;-74
2022/03/25 03:09:39;;;;;;;14.58;11.78;;;30.60;91.50;;;;;;1805269;79;21673;-73
2022/03/25 03:12:10;;;;;;;16.17;11.65;;;30.80;91.20;;;;;;1807762;79;21161;-74
2022/03/25 03:14:41;;;;;;;16.02;10.53;;;30.90;91.20;;;;;;1801434;77;21157;-73
2022/03/25 03:17:14;;;;;;;16.30;11.93;;;31.00;90.50;;;;;;1808720;77;21145;-73
2022/03/25 03:19:45;;;;;;;13.95;10.53;;;31.10;90.20;;;;;;1808875;79;21161;-73
2022/03/25 03:22:18;;;;;;;15.23;11.10;;;31.20;90.00;;;;;;1860181;76;21188;-73
2022/03/25 03:24:49;;;;;;;14.35;11.57;;;31.30;88.40;;;;;;1836180;76;21091;-72
2022/03/25 03:27:20;;;;;;;13.55;10.85;;;31.40;89.00;;;;;;1834269;77;21212;-73
2022/03/25 03:29:54;;;;;;;19.67;11.97;;;31.40;89.30;;;;;;1833320;78;21647;-73
2022/03/25 03:32:26;;;;;;;16.77;12.33;;;31.60;88.60;;;;;;1789925;79;21597;-73
2022/03/25 03:34:58;;;;;;;15.68;12.23;;;31.70;88.30;;;;;;1788803;79;21918;-74
2022/03/25 03:37:30;;;;;;;16.10;13.10;;;31.90;88.00;;;;;;1822394;78;21172;-73
2022/03/25 03:40:01;;;;;;;16.00;12.65;;;32.00;87.20;;;;;;1799802;79;21167;-73
2022/03/25 03:42:32;;;;;;;15.18;12.95;;;32.00;86.80;;;;;;1859194;75;21430;-74
2022/03/25 03:45:03;;;;;;;17.60;13.08;;;31.90;87.60;;;;;;1865146;75;21139;-73
2022/03/25 03:47:36;;;;;;;16.25;12.40;;;31.80;87.70;;;;;;1870592;75;21670;-75
2022/03/25 03:50:11;;;;;;;15.40;12.93;;;31.90;87.80;;;;;;1854734;75;22487;-75
2022/03/25 03:52:43;;;;;;;16.42;12.68;;;32.00;87.20;;;;;;1870873;75;21194;-74
2022/03/25 03:55:14;;;;;;;19.32;13.22;;;32.00;86.00;;;;;;1881318;75;21182;-74
2022/03/25 03:57:45;;;;;;;17.67;13.75;;;32.10;86.20;;;;;;1883369;75;21162;-72
2022/03/25 04:00:16;;;;;;;16.25;12.55;;;32.20;86.10;;;;;;1888665;75;21759;-73
2022/03/25 04:02:49;;;;;;;16.55;12.78;;;32.10;86.30;;;;;;1870684;75;21662;-72
2022/03/25 04:05:21;;;;;;;17.37;13.43;;;31.90;86.40;;;;;;1847075;76;21091;-72
2022/03/25 04:07:52;;;;;;;15.95;12.90;;;31.80;87.90;;;;;;1839581;77;21629;-74
2022/03/25 04:10:23;;;;;;;16.15;13.62;;;31.70;86.90;;;;;;1833353;77;21231;-73
2022/03/25 04:12:54;;;;;;;17.00;13.05;;;31.70;87.70;;;;;;1838825;77;21055;-73
2022/03/25 04:15:27;;;;;;;16.23;13.53;;;31.60;88.00;;;;;;1839282;76;21194;-73
2022/03/25 04:17:58;;;;;;;16.20;13.08;;;31.60;87.50;;;;;;1835279;76;21212;-74
2022/03/25 04:20:29;;;;;;;18.55;13.88;;;31.60;87.80;;;;;;1828387;76;21068;-73
2022/03/25 04:23:00;;;;;;;16.50;13.30;;;31.60;87.80;;;;;;1834183;76;21075;-73
2022/03/25 04:25:31;;;;;;;18.80;14.15;;;31.70;88.00;;;;;;1839296;77;21094;-72
2022/03/25 04:28:02;;;;;;;23.90;14.43;;;31.80;88.30;;;;;;1839448;76;21186;-73
2022/03/25 04:30:36;;;;;;;18.02;14.50;;;31.90;86.70;;;;;;1837176;76;21082;-72
2022/03/25 04:33:07;;;;;;;16.70;14.35;;;31.90;86.50;;;;;;1832802;77;21672;-74
2022/03/25 04:35:38;;;;;;;16.95;14.40;;;31.80;87.10;;;;;;1830175;76;21095;-72
2022/03/25 04:38:09;;;;;;;16.27;13.72;;;31.90;87.10;;;;;;1838134;78;21174;-74
2022/03/25 04:40:50;;;;;;;18.50;15.13;;;31.90;87.70;;;;;;1836294;77;21562;-76
2022/03/25 04:43:22;;;;;;;16.40;14.45;;;32.10;86.20;;;;;;1836408;76;21162;-73
2022/03/25 04:45:52;;;;;;;18.05;13.55;;;32.20;85.10;;;;;;1843448;76;21154;-73
2022/03/25 04:48:23;;;;;;;18.80;14.15;;;32.30;84.30;;;;;;1842178;76;21118;-74
2022/03/25 04:50:54;;;;;;;15.50;12.98;;;32.40;84.20;;;;;;1822799;76;21199;-74
2022/03/25 04:53:26;;;;;;;15.95;13.22;;;32.50;83.90;;;;;;1828285;76;21220;-73
2022/03/25 04:55:59;;;;;;;16.70;13.60;;;32.60;83.40;;;;;;1846690;76;21657;-74
2022/03/25 04:58:31;;;;;;;16.62;13.18;;;32.70;83.60;;;;;;1841724;76;21142;-74
2022/03/25 05:01:02;;;;;;;17.07;12.05;;;32.80;83.20;;;;;;1834370;76;21123;-74
2022/03/25 05:03:33;;;;;;;16.40;12.98;;;32.90;81.70;;;;;;1838180;76;21139;-74
2022/03/25 05:06:05;;;;;;;16.95;13.10;;;32.90;81.00;;;;;;1836381;76;21150;-73
2022/03/25 05:08:36;;;;;;;17.23;12.50;;;32.80;81.90;;;;;;1840250;78;21075;-74
2022/03/25 05:11:07;;;;;;;16.50;12.80;;;32.70;82.60;;;;;;1836723;76;21133;-73
2022/03/25 05:13:38;;;;;;;13.62;11.68;;;32.70;81.80;;;;;;1828403;78;21118;-74
2022/03/25 05:16:09;;;;;;;15.83;12.63;;;32.70;82.30;;;;;;1839879;77;21150;-73
2022/03/25 05:18:40;;;;;;;16.80;13.70;;;32.70;82.00;;;;;;1839573;76;21637;-74
2022/03/25 05:21:11;;;;;;;12.30;10.08;;;32.80;83.20;;;;;;1840359;78;21538;-74
2022/03/25 05:23:42;;;;;;;13.55;8.90;;;32.90;76.80;;;;;;1833987;76;21117;-74
2022/03/25 05:26:13;;;;;;;12.93;9.83;;;33.10;75.70;;;;;;1788618;79;21774;-73
2022/03/25 05:28:45;;;;;;;11.30;7.85;;;;;;;;;;1775695;79;21190;-75
2022/03/25 05:31:49;;;;;;;13.40;8.80;;;33.50;71.90;;;;;;1772228;79;21179;-73
2022/03/25 05:34:20;;;;;;;10.68;8.08;;;33.70;72.30;;;;;;1839930;76;21151;-73
2022/03/25 05:36:51;;;;;;;7.70;6.22;;;33.70;72.00;;;;;;1831429;76;21384;-73
2022/03/25 05:39:22;;;;;;;11.83;7.12;;;33.80;71.50;;;;;;1838085;76;21477;-76
2022/03/25 05:41:53;;;;;;;10.23;7.20;;;33.90;73.00;;;;;;1835983;76;21192;-76
2022/03/25 05:44:23;;;;;;;6.87;5.30;;;34.00;71.90;;;;;;1838018;76;21121;-75
2022/03/25 05:47:11;;;;;;;7.60;5.70;;;34.00;69.50;;;;;;1834189;76;21134;-74
2022/03/25 05:49:51;;;;;;;10.60;6.42;;;34.00;69.80;;;;;;1836755;76;21157;-75
2022/03/25 05:52:22;;;;;;;11.83;7.30;;;33.90;69.40;;;;;;1792657;79;21683;-74
2022/03/25 05:54:53;;;;;;;10.53;7.42;;;34.00;69.30;;;;;;1771826;80;21550;-73
2022/03/25 05:57:25;;;;;;;12.58;8.08;;;34.00;70.00;;;;;;1837489;78;21569;-75
2022/03/25 05:59:59;;;;;;;11.40;8.93;;;34.10;72.10;;;;;;1795773;79;21180;-74
2022/03/25 06:02:30;;;;;;;8.93;7.95;;;34.10;74.00;;;;;;1773004;79;21131;-75
2022/03/25 06:05:01;;;;;;;9.58;8.15;;;34.20;71.80;;;;;;1797090;78;21284;-74
2022/03/25 06:07:35;;;;;;;8.70;7.58;;;34.20;71.00;;;;;;1802955;79;21246;-76
2022/03/25 06:10:09;;;;;;;9.43;8.18;;;34.20;70.40;;;;;;1811924;77;22171;-74
2022/03/25 06:12:41;;;;;;;12.23;8.63;;;34.20;71.80;;;;;;1817401;77;21681;-76
2022/03/25 06:15:12;;;;;;;11.40;8.80;;;34.10;70.40;;;;;;1773295;79;21554;-75
2022/03/25 06:17:45;;;;;;;12.15;8.60;;;34.10;70.50;;;;;;1843648;76;21711;-73
2022/03/25 06:20:19;;;;;;;12.28;8.25;;;34.20;72.70;;;;;;1845217;76;21889;-71
2022/03/25 06:22:50;;;;;;;10.55;8.68;;;34.20;73.10;;;;;;1844372;77;21146;-76
2022/03/25 06:25:24;;;;;;;11.40;8.45;;;34.30;71.30;;;;;;1844617;76;21174;-73
2022/03/25 06:27:58;;;;;;;11.85;8.55;;;34.20;70.60;;;;;;1843340;77;21180;-74
2022/03/25 06:30:34;;;;;;;11.10;8.03;;;34.20;70.40;;;;;;1836756;77;21676;-74
2022/03/25 06:33:06;;;;;;;9.60;7.08;;;34.20;68.40;;;;;;1808259;78;21099;-75
2022/03/25 06:35:39;;;;;;;12.73;7.22;;;34.10;69.00;;;;;;1804593;79;21232;-75
2022/03/25 06:38:10;;;;;;;9.40;6.50;;;34.10;69.90;;;;;;1802540;78;21165;-73
2022/03/25 06:40:41;;;;;;;9.68;6.17;;;34.10;68.90;;;;;;1798034;78;21239;-73
2022/03/25 06:43:13;;;;;;;8.15;5.62;;;34.20;65.80;;;;;;1793100;79;21140;-72
2022/03/25 06:45:47;;;;;;;8.95;6.42;;;34.30;67.00;;;;;;1797230;79;21442;-73
2022/03/25 06:48:18;;;;;;;12.23;7.12;;;34.40;69.40;;;;;;1810773;77;21176;-73
2022/03/25 06:50:50;;;;;;;10.65;6.12;;;34.50;66.10;;;;;;1816217;77;21540;-74
2022/03/25 06:53:21;;;;;;;11.40;6.20;;;34.40;66.10;;;;;;1813074;78;21553;-73
2022/03/25 06:55:53;;;;;;;8.28;5.95;;;34.20;65.10;;;;;;1813074;79;21190;-71
2022/03/25 06:58:27;;;;;;;9.18;5.72;;;34.10;64.60;;;;;;1808340;79;21624;-73
2022/03/25 07:00:58;;;;;;;8.58;5.67;;;33.90;65.80;;;;;;1804411;79;21212;-72
2022/03/25 07:03:30;;;;;;;5.97;4.80;;;33.80;65.40;;;;;;1812248;79;21244;-72
2022/03/25 07:06:03;;;;;;;11.20;5.85;;;33.70;65.20;;;;;;1826227;77;21742;-73
2022/03/25 07:08:35;;;;;;;7.75;5.97;;;33.60;65.00;;;;;;1819883;78;21682;-74
2022/03/25 07:11:07;;;;;;;10.35;6.90;;;33.50;66.10;;;;;;1820128;77;21727;-73
2022/03/25 07:13:38;;;;;;;15.38;8.00;;;33.50;66.50;;;;;;1818041;79;21168;-73
2022/03/25 07:16:09;;;;;;;14.30;7.72;;;33.00;74.20;;;;;;1819325;77;21794;-73
2022/03/25 07:18:40;;;;;;;13.75;6.53;;;32.30;77.30;;;;;;1816128;79;21109;-73
2022/03/25 07:21:11;;;;;;;15.05;6.42;;;31.60;79.90;;;;;;1821281;77;21631;-72
2022/03/25 07:23:42;;;;;;;14.58;5.47;;;31.10;81.90;;;;;;1841955;76;21192;-73
2022/03/25 07:26:13;;;;;;;14.00;5.80;;;30.70;84.20;;;;;;1820156;77;21219;-73
2022/03/25 07:28:47;;;;;;;9.38;5.22;;;30.30;86.30;;;;;;1813592;77;21137;-74
2022/03/25 07:31:18;;;;;;;7.40;5.30;;;30.00;88.10;;;;;;1843195;76;21140;-73
2022/03/25 07:33:49;;;;;;;11.05;5.40;;;29.60;89.30;;;;;;1822231;77;21637;-73
2022/03/25 07:36:19;;;;;;;9.08;5.75;;;29.40;90.20;;;;;;1832048;77;21289;-73
2022/03/25 07:38:50;;;;;;;10.72;5.42;;;29.30;90.60;;;;;;1831913;77;21568;-73
2022/03/25 07:41:21;;;;;;;9.80;6.12;;;29.20;90.70;;;;;;1885650;74;21694;-73
2022/03/25 07:43:53;;;;;;;7.00;5.10;;;29.10;90.90;;;;;;1844538;76;21176;-73
2022/03/25 07:46:25;;;;;;;8.50;5.45;;;29.10;90.90;;;;;;1819290;77;22392;-73
2022/03/25 07:48:56;;;;;;;10.08;5.75;;;29.10;90.80;;;;;;1840720;76;21230;-72
2022/03/25 07:51:29;;;;;;;11.45;5.53;;;29.10;90.80;;;;;;1819861;77;21215;-73
2022/03/25 07:54:00;;;;;;;10.28;5.62;;;29.10;90.80;;;;;;1816065;77;21202;-73
2022/03/25 07:56:30;;;;;;;8.15;5.45;;;29.10;90.80;;;;;;1805524;77;21149;-72
2022/03/25 07:59:03;;;;;;;8.85;5.97;;;29.10;90.80;;;;;;1818768;77;21136;-72
2022/03/25 08:01:34;;;;;;;10.10;5.92;;;29.10;90.30;;;;;;1830249;77;21132;-71
2022/03/25 08:04:05;;;;;;;8.43;5.50;;;29.20;90.30;;;;;;1887149;75;21648;-73
2022/03/25 08:06:38;;;;;;;12.60;5.60;;;29.20;90.10;;;;;;1835648;76;21059;-71
2022/03/25 08:09:09;;;;;;;8.55;5.05;;;29.30;89.40;;;;;;1870782;76;21137;-73
2022/03/25 08:11:39;;;;;;;8.03;5.10;;;29.40;89.10;;;;;;1875522;75;21616;-73
2022/03/25 08:14:10;;;;;;;7.00;4.30;;;29.50;88.90;;;;;;1873357;76;21130;-72
2022/03/25 08:16:45;;;;;;;8.50;4.22;;;29.50;88.90;;;;;;1826356;76;21172;-72
2022/03/25 08:19:15;;;;;;;9.58;4.50;;;29.60;88.40;;;;;;1876740;75;21127;-74
2022/03/25 08:21:45;;;;;;;9.05;4.40;;;29.60;87.30;;;;;;1864754;76;21260;-73
2022/03/25 08:29:22;;;;;;;7.17;5.15;;;29.80;86.90;;;;;;1869130;76;21202;-73
2022/03/25 08:31:53;;;;;;;8.45;5.17;;;29.80;87.00;;;;;;1782726;78;21184;-73
2022/03/25 08:34:25;;;;;;;8.48;4.80;;;29.90;86.50;;;;;;1822967;76;21118;-72
2022/03/25 08:36:56;;;;;;;9.55;5.30;;;29.90;86.10;;;;;;1868162;76;21099;-71
2022/03/25 08:39:29;;;;;;;7.58;5.08;;;29.90;86.10;;;;;;1871646;76;21122;-71
2022/03/25 08:42:02;;;;;;;7.62;4.70;;;29.90;86.40;;;;;;1825873;77;21156;-72
2022/03/25 08:44:33;;;;;;;8.95;5.10;;;29.80;85.70;;;;;;1814403;78;21164;-72
2022/03/25 08:47:05;;;;;;;10.23;5.62;;;29.80;85.90;;;;;;1812101;78;21601;-72
2022/03/25 08:49:36;;;;;;;9.15;5.40;;;29.80;86.10;;;;;;1812455;78;21656;-72
2022/03/25 08:52:07;;;;;;;11.10;5.55;;;29.80;85.60;;;;;;1780277;79;21702;-71
2022/03/25 08:54:39;;;;;;;8.70;4.78;;;29.80;85.70;;;;;;1809321;77;21126;-72
2022/03/25 08:57:09;;;;;;;9.33;4.92;;;29.80;85.40;;;;;;1799517;77;21195;-71
2022/03/25 08:59:41;;;;;;;11.03;5.30;;;29.90;85.60;;;;;;1874783;75;21107;-71
2022/03/25 09:02:15;;;;;;;7.78;4.75;;;29.90;85.50;;;;;;1872455;75;21154;-70
2022/03/25 09:04:46;;;;;;;9.55;5.80;;;29.80;85.10;;;;;;1827524;77;21109;-72
2022/03/25 09:07:17;;;;;;;11.40;5.85;;;29.80;85.00;;;;;;1814821;78;21171;-71
2022/03/25 09:09:48;;;;;;;10.15;5.40;;;29.80;85.40;;;;;;1821844;77;21156;-71
2022/03/25 09:12:19;;;;;;;18.57;6.40;;;29.80;85.80;;;;;;1781423;80;21598;-72
2022/03/25 09:14:50;;;;;;;8.58;5.40;;;29.60;86.50;;;;;;1818439;77;21574;-71
2022/03/25 09:17:21;;;;;;;11.70;6.55;;;29.50;87.20;;;;;;1819394;77;21227;-70
2022/03/25 09:19:54;;;;;;;9.18;5.90;;;29.50;88.10;;;;;;1815886;78;21187;-72
2022/03/25 09:22:25;;;;;;;8.80;5.28;;;29.50;88.20;;;;;;1782098;79;21153;-72
2022/03/25 09:24:56;;;;;;;11.05;5.37;;;29.40;88.20;;;;;;1819015;77;21187;-72
2022/03/25 09:27:27;;;;;;;9.15;5.37;;;29.30;88.40;;;;;;1817233;77;21254;-71
2022/03/25 09:29:58;;;;;;;9.68;5.47;;;29.30;88.70;;;;;;1809367;79;21612;-71
2022/03/25 09:32:29;;;;;;;11.38;4.97;;;29.30;88.70;;;;;;1818063;77;21254;-72
2022/03/25 09:35:09;;;;;;;15.08;5.30;;;29.30;88.60;;;;;;1814175;77;21259;-71
2022/03/25 09:37:36;;;;;;;11.25;5.50;;;29.30;88.10;;;;;;1819478;77;21470;-70
2022/03/25 09:40:09;;;;;;;12.45;4.78;;;29.30;88.10;;;;;;1811181;77;21154;-72
2022/03/25 09:42:45;;;;;;;8.93;5.00;;;29.40;88.20;;;;;;1783893;80;21605;-72
2022/03/25 09:45:23;;;;;;;12.98;5.83;;;29.40;88.30;;;;;;1815586;77;21181;-71
2022/03/25 09:47:56;;;;;;;13.83;5.95;;;29.40;88.40;;;;;;1819037;77;21066;-70
2022/03/25 09:50:33;;;;;;;10.53;6.35;;;29.50;88.60;;;;;;1816437;78;21152;-70
2022/03/25 09:53:07;;;;;;;11.55;6.17;;;29.50;88.70;;;;;;1825433;77;21146;-72
2022/03/25 09:55:40;;;;;;;13.38;6.10;;;29.60;88.50;;;;;;1828827;77;21632;-70
2022/03/25 09:58:18;;;;;;;14.40;5.60;;;29.60;88.00;;;;;;1817987;78;21167;-70
2022/03/25 10:00:49;;;;;;;11.93;6.28;;;29.60;87.60;;;;;;1782172;79;21146;-72
2022/03/25 10:03:23;;;;;;;13.22;6.47;;;29.70;87.30;;;;;;1817181;77;21229;-73
2022/03/25 10:05:57;;;;;;;17.48;7.03;;;29.70;87.20;;;;;;1819384;77;21143;-73
2022/03/25 10:08:32;;;;;;;;;;;29.70;87.60;;;;;;1785906;78;21275;-73
2022/03/25 10:11:07;;;;;;;11.65;5.95;;;29.70;87.60;;;;;;1785642;79;20213;-72
2022/03/25 10:13:38;;;;;;;10.85;5.87;;;29.70;88.00;;;;;;1859857;75;21087;-74
2022/03/25 10:16:11;;;;;;;14.20;6.15;;;29.70;87.40;;;;;;1864640;75;21147;-82
2022/03/25 10:18:45;;;;;;;15.08;5.28;;;29.70;87.70;;;;;;1859567;75;21267;-84
2022/03/25 10:21:16;;;;;;;10.45;5.15;;;29.60;87.40;;;;;;1865455;76;21166;-84
2022/03/25 10:23:47;;;;;;;9.05;5.33;;;29.60;87.20;;;;;;1864475;75;21067;-84
2022/03/25 10:26:20;;;;;;;7.85;5.70;;;29.60;87.30;;;;;;1862027;76;21104;-85
2022/03/25 10:28:53;;;;;;;9.05;5.78;;;29.60;87.40;;;;;;1872297;76;21210;-84
2022/03/25 10:31:23;;;;;;;12.37;6.00;;;29.50;87.70;;;;;;1871323;76;21193;-85
2022/03/25 10:33:57;;;;;;;9.35;5.35;;;29.50;86.00;;;;;;1872318;76;21193;-84
2022/03/25 10:36:28;;;;;;;9.03;5.40;;;29.50;86.50;;;;;;1870729;75;21685;-84
2022/03/25 10:39:01;;;;;;;7.92;5.50;;;29.50;87.00;;;;;;1871820;76;21781;-84
2022/03/25 10:41:34;;;;;;;7.87;5.20;;;29.50;87.00;;;;;;1862141;76;21173;-85
2022/03/25 10:44:09;;;;;;;;;;;29.50;86.60;;;;;;1843639;77;21142;-84
2022/03/25 10:46:45;;;;;;;8.10;5.17;;;29.50;86.70;;;;;;1855953;76;20196;-82
2022/03/25 10:49:18;;;;;;;10.60;5.83;;;29.50;86.70;;;;;;1872535;76;21119;-84
2022/03/25 10:51:51;;;;;;;10.13;5.35;;;29.60;86.50;;;;;;1859891;76;21163;-84
2022/03/25 10:54:26;;;;;;;10.78;5.87;;;29.60;86.50;;;;;;1870908;76;21155;-83
2022/03/25 10:57:02;;;;;;;10.23;5.55;;;29.50;87.20;;;;;;1871711;75;21170;-84
2022/03/25 10:59:34;;;;;;;10.32;5.70;;;29.50;87.80;;;;;;1849078;76;21695;-83
2022/03/25 11:02:07;;;;;;;8.20;5.33;;;29.30;87.80;;;;;;1852853;76;21060;-85
2022/03/25 11:04:40;;;;;;;11.68;5.60;;;29.20;88.10;;;;;;1871672;76;21143;-84
2022/03/25 11:07:12;;;;;;;14.43;5.87;;;29.10;88.80;;;;;;1862998;76;21109;-82
2022/03/25 11:09:43;;;;;;;12.03;5.50;;;29.10;88.90;;;;;;1885824;76;21239;-83
2022/03/25 11:12:15;;;;;;;9.45;5.83;;;29.00;89.00;;;;;;1873108;76;21595;-82
2022/03/25 11:14:46;;;;;;;10.63;5.28;;;29.00;89.00;;;;;;1854395;76;21210;-83
2022/03/25 11:17:20;;;;;;;10.25;5.80;;;29.00;89.20;;;;;;1844116;78;21156;-82
2022/03/25 11:19:50;;;;;;;9.20;5.55;;;29.00;88.90;;;;;;1846212;78;21109;-82
2022/03/25 11:22:23;;;;;;;9.50;5.58;;;29.00;89.10;;;;;;1815608;79;21105;-83
2022/03/25 11:24:57;;;;;;;12.80;5.50;;;29.00;89.30;;;;;;1844637;77;21722;-83
2022/03/25 11:27:30;;;;;;;10.90;6.65;;;29.00;89.20;;;;;;1844168;78;21184;-81
2022/03/25 11:30:03;;;;;;;13.28;6.60;;;29.10;89.40;;;;;;1833849;76;21158;-81
2022/03/25 11:32:34;;;;;;;11.88;6.97;;;29.10;89.20;;;;;;1813411;78;21436;-81
2022/03/25 11:35:04;;;;;;;17.02;8.05;;;29.20;89.20;;;;;;1818497;78;21135;-84
2022/03/25 11:37:36;;;;;;;14.38;8.10;;;29.20;89.50;;;;;;1845926;76;21246;-82
2022/03/25 11:40:09;;;;;;;23.87;13.30;;;29.20;89.50;;;;;;1793981;79;21162;-83
2022/03/25 11:42:43;;;;;;;21.95;13.48;;;29.20;89.70;;;;;;1793592;78;21118;-82
2022/03/25 11:45:16;;;;;;;20.02;11.80;;;29.10;89.80;;;;;;1790071;79;21169;-84
2022/03/25 11:47:48;;;;;;;20.20;10.08;;;29.20;90.00;;;;;;1845600;77;21667;-83
2022/03/25 11:50:21;;;;;;;16.62;9.53;;;29.10;90.00;;;;;;1812566;78;21209;-83
2022/03/25 11:52:52;;;;;;;15.10;8.88;;;29.10;90.10;;;;;;1808981;78;21159;-83
2022/03/25 11:55:23;;;;;;;15.93;8.53;;;29.10;90.20;;;;;;1811094;79;21164;-82
2022/03/25 11:57:57;;;;;;;14.45;7.72;;;29.00;90.20;;;;;;1821135;78;21192;-84
2022/03/25 12:00:29;;;;;;;17.23;8.15;;;29.00;90.30;;;;;;1807679;79;21111;-82
2022/03/25 12:03:02;;;;;;;22.87;12.43;;;29.00;90.50;;;;;;1810453;79;21097;-82
2022/03/25 12:05:34;;;;;;;19.60;10.65;;;29.00;90.70;;;;;;1819600;79;21161;-83
2022/03/25 12:08:10;;;;;;;21.00;9.33;;;29.00;90.60;;;;;;1793696;78;21119;-82
2022/03/25 12:10:44;;;;;;;18.12;8.30;;;29.00;90.70;;;;;;1815246;79;21164;-83
2022/03/25 12:13:15;;;;;;;13.22;7.87;;;28.90;90.80;;;;;;1880751;76;21084;-83
2022/03/25 12:15:48;;;;;;;17.00;8.83;;;28.90;90.80;;;;;;1881353;76;21139;-84
2022/03/25 12:18:21;;;;;;;16.70;8.98;;;28.80;90.90;;;;;;1883860;76;21267;-82
2022/03/25 12:20:54;;;;;;;20.12;9.53;;;28.80;90.90;;;;;;1863737;76;21185;-84
2022/03/25 12:23:24;;;;;;;25.55;11.80;;;28.80;91.00;;;;;;1875311;76;21130;-83
2022/03/25 12:25:56;;;;;;;24.82;14.03;;;28.70;91.10;;;;;;1872400;76;21238;-83
2022/03/25 12:28:27;;;;;;;26.93;12.95;;;28.70;91.20;;;;;;1880897;74;21064;-83
2022/03/25 12:31:03;;;;;;;19.70;10.78;;;28.70;91.20;;;;;;1883784;76;21087;-84
2022/03/25 12:33:35;;;;;;;17.70;11.08;;;28.60;91.20;;;;;;1863579;76;21242;-83
2022/03/25 12:36:08;;;;;;;27.17;11.88;;;28.60;91.40;;;;;;1844446;77;21238;-83
2022/03/25 12:38:43;;;;;;;20.32;10.65;;;28.60;91.60;;;;;;1840549;77;21163;-83
2022/03/25 12:41:14;;;;;;;22.30;11.35;;;28.60;91.60;;;;;;1879322;76;21191;-85
2022/03/25 12:43:52;;;;;;;20.02;10.38;;;28.50;91.50;;;;;;1871589;76;21079;-83
2022/03/25 12:46:25;;;;;;;20.68;11.20;;;28.50;91.60;;;;;;1868032;76;21355;-83
2022/03/25 12:48:59;;;;;;;17.00;10.60;;;28.50;91.60;;;;;;1857336;76;21166;-83
2022/03/25 12:51:30;;;;;;;14.83;9.18;;;28.50;91.90;;;;;;1883226;74;21599;-84
2022/03/25 12:54:02;;;;;;;17.57;8.98;;;28.50;91.90;;;;;;1883020;76;21156;-83
2022/03/25 12:56:33;;;;;;;15.68;9.20;;;28.50;91.70;;;;;;1885908;76;21539;-83
2022/03/25 12:59:07;;;;;;;13.22;7.85;;;28.50;91.60;;;;;;1884162;76;21143;-84
2022/03/25 13:01:40;;;;;;;11.55;6.12;;;28.50;91.50;;;;;;1887058;76;21055;-83
2022/03/25 13:04:13;;;;;;;13.45;7.58;;;28.50;91.30;;;;;;1880543;76;21142;-86
2022/03/25 13:06:44;;;;;;;11.50;6.47;;;28.50;91.30;;;;;;1884465;76;21190;-83